createdAt,value
2019-05-18T00:00:15.876Z,6.00
2019-05-18T00:02:47.863Z,7.13
2019-05-18T00:05:19.822Z,6.27
2019-05-18T00:07:51.786Z,6.20
2019-05-18T00:10:23.719Z,7.30
2019-05-18T00:12:55.688Z,7.13
2019-05-18T00:15:27.646Z,7.53
2019-05-18T00:17:59.631Z,7.20
2019-05-18T00:20:31.569Z,7.40
2019-05-18T00:23:03.539Z,6.97
2019-05-18T00:25:35.615Z,7.10
2019-05-18T00:28:07.580Z,6.73
2019-05-18T00:30:39.549Z,7.50
2019-05-18T00:33:11.526Z,7.20
2019-05-18T00:35:43.505Z,6.37
2019-05-18T00:38:15.477Z,6.70
2019-05-18T00:40:47.431Z,6.50
2019-05-18T00:43:19.370Z,6.67
2019-05-18T00:45:51.364Z,6.50
2019-05-18T00:48:23.331Z,5.90
2019-05-18T00:50:55.332Z,6.80
2019-05-18T00:53:27.336Z,6.33
2019-05-18T00:55:59.302Z,6.60
2019-05-18T00:58:31.282Z,6.47
2019-05-18T01:01:03.376Z,6.40
2019-05-18T01:03:35.343Z,6.73
2019-05-18T01:06:07.550Z,6.40
2019-05-18T01:08:39.534Z,6.40
2019-05-18T01:11:11.476Z,6.80
2019-05-18T01:13:43.464Z,5.70
2019-05-18T01:16:15.446Z,5.50
2019-05-18T01:18:47.408Z,5.70
2019-05-18T01:21:19.368Z,5.57
2019-05-18T01:23:51.352Z,5.93
2019-05-18T01:26:23.357Z,6.10
2019-05-18T01:29:00.999Z,6.03
2019-05-18T01:31:33.156Z,6.90
2019-05-18T01:34:05.138Z,7.13
2019-05-18T01:36:37.088Z,7.13
2019-05-18T01:39:09.029Z,6.60
2019-05-18T01:41:41.021Z,6.47
2019-05-18T01:44:12.949Z,6.63
2019-05-18T01:46:44.955Z,6.10
2019-05-18T01:49:16.919Z,6.60
2019-05-18T01:51:48.929Z,6.33
2019-05-18T01:54:20.872Z,6.30
2019-05-18T01:56:52.859Z,7.03
2019-05-18T01:59:24.814Z,6.57
2019-05-18T02:01:56.790Z,6.33
2019-05-18T02:04:28.773Z,6.83
2019-05-18T02:07:00.734Z,6.63
2019-05-18T02:09:32.744Z,6.33
2019-05-18T02:12:04.705Z,6.03
2019-05-18T02:14:36.673Z,6.10
2019-05-18T02:17:08.696Z,6.47
2019-05-18T02:19:40.629Z,7.13
2019-05-18T02:22:12.589Z,6.57
2019-05-18T02:24:44.547Z,6.57
2019-05-18T02:27:16.557Z,6.30
2019-05-18T02:29:48.573Z,6.17
2019-05-18T02:32:20.475Z,7.10
2019-05-18T02:34:52.435Z,7.37
2019-05-18T02:37:24.414Z,7.00
2019-05-18T02:39:56.392Z,7.43
2019-05-18T02:42:30.822Z,6.47
2019-05-18T02:45:02.304Z,7.57
2019-05-18T02:47:34.267Z,7.63
2019-05-18T02:50:06.225Z,7.83
2019-05-18T02:52:38.221Z,7.67
2019-05-18T02:55:10.364Z,7.53
2019-05-18T02:57:42.315Z,8.10
2019-05-18T03:00:16.112Z,8.40
2019-05-18T03:02:48.032Z,7.93
2019-05-18T03:05:19.972Z,7.67
2019-05-18T03:07:52.084Z,7.97
2019-05-18T03:10:24.043Z,8.13
2019-05-18T03:12:56.006Z,9.03
2019-05-18T03:15:28.021Z,8.83
2019-05-18T03:18:00.167Z,8.40
2019-05-18T03:20:32.146Z,9.33
2019-05-18T03:23:04.107Z,9.47
2019-05-18T03:25:36.106Z,9.20
2019-05-18T03:28:08.074Z,9.07
2019-05-18T03:30:40.007Z,9.83
2019-05-18T03:33:11.989Z,9.40
2019-05-18T03:35:43.987Z,9.97
2019-05-18T03:38:16.068Z,10.43
2019-05-18T03:40:48.002Z,9.93
2019-05-18T03:43:19.985Z,10.77
2019-05-18T03:45:52.107Z,9.93
2019-05-18T03:48:24.064Z,9.67
2019-05-18T03:50:56.060Z,9.80
2019-05-18T03:53:28.030Z,9.10
2019-05-18T03:56:00.008Z,9.03
2019-05-18T03:58:31.933Z,9.17
2019-05-18T04:01:03.915Z,9.17
2019-05-18T04:03:35.854Z,8.33
2019-05-18T04:06:07.808Z,10.93
2019-05-18T04:08:39.816Z,9.73
2019-05-18T04:11:11.783Z,9.10
2019-05-18T04:13:43.728Z,9.43
2019-05-18T04:16:15.677Z,9.50
2019-05-18T04:18:47.625Z,10.40
2019-05-18T04:21:19.594Z,10.97
2019-05-18T04:23:51.574Z,10.23
2019-05-18T04:26:23.553Z,10.33
2019-05-18T04:28:55.505Z,10.17
2019-05-18T04:31:31.684Z,11.23
2019-05-18T04:34:01.391Z,10.27
2019-05-18T04:36:33.400Z,8.40
2019-05-18T04:39:05.572Z,8.50
2019-05-18T04:41:37.527Z,9.20
2019-05-18T04:44:09.488Z,8.70
2019-05-18T04:46:41.429Z,9.23
2019-05-18T04:49:13.353Z,10.23
2019-05-18T04:51:45.334Z,11.80
2019-05-18T04:54:17.289Z,11.40
2019-05-18T04:56:49.248Z,10.30
2019-05-18T04:59:21.189Z,11.37
2019-05-18T05:01:53.141Z,10.13
2019-05-18T05:04:25.122Z,9.13
2019-05-18T05:06:57.085Z,9.23
2019-05-18T05:09:29.089Z,9.17
2019-05-18T05:12:01.043Z,9.20
2019-05-18T05:14:33.007Z,8.50
2019-05-18T05:17:04.965Z,8.30
2019-05-18T05:19:37.704Z,8.03
2019-05-18T05:22:09.669Z,8.63
2019-05-18T05:24:41.628Z,9.37
2019-05-18T05:27:13.667Z,8.73
2019-05-18T05:29:45.618Z,8.70
2019-05-18T05:32:17.641Z,9.17
2019-05-18T05:34:49.606Z,9.07
2019-05-18T05:37:21.572Z,10.07
2019-05-18T05:39:53.536Z,9.83
2019-05-18T05:42:25.557Z,9.27
2019-05-18T05:44:57.516Z,9.47
2019-05-18T05:47:29.568Z,11.07
2019-05-18T05:50:01.569Z,9.53
2019-05-18T05:52:33.542Z,10.17
2019-05-18T05:55:05.520Z,9.67
2019-05-18T05:57:37.517Z,10.33
2019-05-18T06:00:09.792Z,10.10
2019-05-18T06:02:41.805Z,9.83
2019-05-18T06:05:13.824Z,9.10
2019-05-18T06:07:45.885Z,9.50
2019-05-18T06:10:17.899Z,9.87
2019-05-18T06:12:49.876Z,10.43
2019-05-18T06:15:21.885Z,10.27
2019-05-18T06:21:38.895Z,10.17
2019-05-18T06:24:10.883Z,11.17
2019-05-18T06:26:42.841Z,10.60
2019-05-18T06:29:14.824Z,10.00
2019-05-18T06:31:46.786Z,10.20
2019-05-18T06:34:18.800Z,10.00
2019-05-18T06:36:50.759Z,10.10
2019-05-18T06:39:22.760Z,10.07
2019-05-18T06:41:54.750Z,8.53
2019-05-18T06:44:26.720Z,10.23
2019-05-18T06:46:58.729Z,9.88
2019-05-18T06:49:30.728Z,8.85
2019-05-18T06:52:02.782Z,8.73
2019-05-18T06:54:34.827Z,9.95
2019-05-18T06:57:07.130Z,9.70
2019-05-18T06:59:39.163Z,9.65
2019-05-18T07:02:11.164Z,9.20
2019-05-18T07:04:44.658Z,10.13
2019-05-18T07:07:16.886Z,10.00
2019-05-18T07:09:48.970Z,10.25
2019-05-18T07:12:20.980Z,10.58
2019-05-18T07:14:52.953Z,9.93
2019-05-18T07:17:25.027Z,9.48
2019-05-18T07:19:57.016Z,9.50
2019-05-18T07:22:29.019Z,9.50
2019-05-18T07:25:01.000Z,9.73
2019-05-18T07:27:33.054Z,9.35
2019-05-18T07:30:05.156Z,9.10
2019-05-18T07:32:37.157Z,8.68
2019-05-18T07:35:11.052Z,8.43
2019-05-18T07:37:43.040Z,7.85
2019-05-18T07:40:15.125Z,8.55
2019-05-18T07:42:47.150Z,7.85
2019-05-18T07:45:19.155Z,8.50
2019-05-18T07:47:51.113Z,6.72
2019-05-18T07:50:23.108Z,7.95
2019-05-18T07:52:55.124Z,7.67
2019-05-18T07:55:27.115Z,7.75
2019-05-18T07:57:59.154Z,8.08
2019-05-18T08:00:31.139Z,7.22
2019-05-18T08:03:03.232Z,7.87
2019-05-18T08:05:35.282Z,8.38
2019-05-18T08:08:07.329Z,7.97
2019-05-18T08:10:39.365Z,7.17
2019-05-18T08:13:11.393Z,7.78
2019-05-18T08:15:43.525Z,7.78
2019-05-18T08:18:15.564Z,7.47
2019-05-18T08:20:47.596Z,7.28
2019-05-18T08:23:19.690Z,7.45
2019-05-18T08:25:51.954Z,8.10
2019-05-18T08:28:24.027Z,7.28
2019-05-18T08:30:56.062Z,6.80
2019-05-18T08:33:28.094Z,7.78
2019-05-18T08:36:00.060Z,7.22
2019-05-18T08:38:32.071Z,7.85
2019-05-18T08:41:04.218Z,6.97
2019-05-18T08:43:36.264Z,6.90
2019-05-18T08:46:08.288Z,7.58
2019-05-18T08:48:40.413Z,7.22
2019-05-18T08:51:12.420Z,6.50
2019-05-18T08:53:44.483Z,6.95
2019-05-18T08:56:16.533Z,6.45
2019-05-18T08:58:48.635Z,6.65
2019-05-18T09:01:20.622Z,7.20
2019-05-18T09:03:52.671Z,7.78
2019-05-18T09:06:24.700Z,6.75
2019-05-18T09:08:56.721Z,7.92
2019-05-18T09:11:28.759Z,7.75
2019-05-18T09:14:00.819Z,6.33
2019-05-18T09:16:32.880Z,6.72
2019-05-18T09:19:04.962Z,6.60
2019-05-18T09:21:37.027Z,6.92
2019-05-18T09:24:09.052Z,5.58
2019-05-18T09:26:41.136Z,6.62
2019-05-18T09:29:13.166Z,6.40
2019-05-18T09:31:45.164Z,6.80
2019-05-18T09:34:17.175Z,6.58
2019-05-18T09:36:49.208Z,6.62
2019-05-18T09:39:21.190Z,5.97
2019-05-18T09:41:53.203Z,6.03
2019-05-18T09:44:25.226Z,6.30
2019-05-18T09:46:57.254Z,6.95
2019-05-18T09:49:29.242Z,5.92
2019-05-18T09:52:01.232Z,6.75
2019-05-18T09:54:33.235Z,5.85
2019-05-18T09:57:05.260Z,5.87
2019-05-18T09:59:37.257Z,5.53
2019-05-18T10:02:09.260Z,6.58
2019-05-18T10:04:41.237Z,5.25
2019-05-18T10:07:13.277Z,5.40
2019-05-18T10:09:45.292Z,5.85
2019-05-18T10:12:17.298Z,5.70
2019-05-18T10:14:49.298Z,5.17
2019-05-18T10:17:21.300Z,5.42
2019-05-18T10:19:53.312Z,4.78
2019-05-18T10:22:25.318Z,4.97
2019-05-18T10:24:57.307Z,5.28
2019-05-18T10:27:29.336Z,5.97
2019-05-18T10:30:01.356Z,5.30
2019-05-18T10:32:33.473Z,5.47
2019-05-18T10:35:05.517Z,4.37
2019-05-18T10:37:37.563Z,5.42
2019-05-18T10:40:09.984Z,5.78
2019-05-18T10:42:42.036Z,5.28
2019-05-18T10:45:14.133Z,4.67
2019-05-18T10:47:46.197Z,5.20
2019-05-18T10:50:18.221Z,4.87
2019-05-18T10:52:50.208Z,5.10
2019-05-18T10:55:22.208Z,5.10
2019-05-18T10:57:54.219Z,4.97
2019-05-18T11:00:26.243Z,4.60
2019-05-18T11:02:58.235Z,4.40
2019-05-18T11:05:30.206Z,4.60
2019-05-18T11:08:02.326Z,4.37
2019-05-18T11:10:34.262Z,4.67
2019-05-18T11:13:06.270Z,5.00
2019-05-18T11:15:38.265Z,4.33
2019-05-18T11:18:10.265Z,5.03
2019-05-18T11:20:42.253Z,4.70
2019-05-18T11:23:14.266Z,5.28
2019-05-18T11:25:46.218Z,5.35
2019-05-18T11:28:18.278Z,5.00
2019-05-18T11:30:50.241Z,4.65
2019-05-18T11:33:22.305Z,4.92
2019-05-18T11:35:54.301Z,12.40
2019-05-18T11:38:26.448Z,5.28
2019-05-18T11:40:58.457Z,4.65
2019-05-18T11:43:30.492Z,5.47
2019-05-18T11:46:02.501Z,5.20
2019-05-18T11:48:34.504Z,5.25
2019-05-18T11:51:07.043Z,5.10
2019-05-18T11:53:39.078Z,5.92
2019-05-18T11:56:11.094Z,6.08
2019-05-18T11:58:43.101Z,5.42
2019-05-18T12:01:15.104Z,5.10
2019-05-18T12:03:47.166Z,4.75
2019-05-18T12:06:19.181Z,6.33
2019-05-18T12:08:51.193Z,5.05
2019-05-18T12:11:23.212Z,5.53
2019-05-18T12:13:55.253Z,4.78
2019-05-18T12:16:27.281Z,5.33
2019-05-18T12:18:59.266Z,5.35
2019-05-18T12:21:31.290Z,4.20
2019-05-18T12:24:14.689Z,4.25
2019-05-18T12:26:37.352Z,4.20
2019-05-18T12:29:09.361Z,4.30
2019-05-18T12:31:41.391Z,4.70
2019-05-18T12:34:13.379Z,6.72
2019-05-18T12:36:45.381Z,6.92
2019-05-18T12:39:17.379Z,6.60
2019-05-18T12:41:49.406Z,7.17
2019-05-18T12:44:21.423Z,7.28
2019-05-18T12:46:56.451Z,8.93
2019-05-18T12:49:28.444Z,8.48
2019-05-18T12:52:00.569Z,10.08
2019-05-18T12:54:45.521Z,10.35
2019-05-18T12:57:06.525Z,9.45
2019-05-18T12:59:38.545Z,9.73
2019-05-18T13:02:10.601Z,9.30
2019-05-18T13:04:42.609Z,9.73
2019-05-18T13:10:08.691Z,5.37
2019-05-18T13:12:40.661Z,5.30
2019-05-18T13:15:12.969Z,4.60
2019-05-18T13:17:44.988Z,4.70
2019-05-18T13:20:17.318Z,5.30
2019-05-18T13:22:49.312Z,3.53
2019-05-18T13:25:21.301Z,4.47
2019-05-18T13:27:53.352Z,5.70
2019-05-18T13:30:25.379Z,7.23
2019-05-18T13:32:57.396Z,7.37
2019-05-18T13:35:29.411Z,6.07
2019-05-18T13:38:01.885Z,6.10
2019-05-18T13:40:33.901Z,5.67
2019-05-18T13:43:05.948Z,4.90
2019-05-18T13:45:38.127Z,4.90
2019-05-18T13:48:10.134Z,4.63
2019-05-18T13:50:44.747Z,5.57
2019-05-18T13:53:16.150Z,5.13
2019-05-18T13:55:48.198Z,5.07
2019-05-18T13:58:20.219Z,4.30
2019-05-18T14:00:52.228Z,4.80
2019-05-18T14:03:24.256Z,5.40
2019-05-18T14:05:56.287Z,5.33
2019-05-18T14:08:57.374Z,5.53
2019-05-18T14:27:54.719Z,7.27
2019-05-18T14:39:09.842Z,4.78
2019-05-18T14:45:26.272Z,3.83
2019-05-18T14:48:58.477Z,4.67
2019-05-18T15:05:58.880Z,4.00
2019-05-18T15:09:33.258Z,3.67
2019-05-18T15:12:56.426Z,3.70
2019-05-18T15:20:52.156Z,3.40
2019-05-18T15:22:40.658Z,3.52
2019-05-18T15:25:13.226Z,3.25
2019-05-18T15:27:45.198Z,3.33
2019-05-18T15:30:17.836Z,3.25
2019-05-18T15:32:49.834Z,3.12
2019-05-18T15:35:21.872Z,3.80
2019-05-18T15:37:53.875Z,3.67
2019-05-18T15:40:25.884Z,3.50
2019-05-18T15:42:57.837Z,3.45
2019-05-18T15:45:29.839Z,3.20
2019-05-18T15:48:01.850Z,3.30
2019-05-18T15:50:33.931Z,3.20
2019-05-18T15:53:06.025Z,3.50
2019-05-18T15:55:38.079Z,3.08
2019-05-18T15:58:10.167Z,2.77
2019-05-18T16:00:42.199Z,3.40
2019-05-18T16:03:14.196Z,2.80
2019-05-18T16:05:46.230Z,3.20
2019-05-18T16:08:18.251Z,3.15
2019-05-18T16:10:50.398Z,3.08
2019-05-18T16:13:22.478Z,2.95
2019-05-18T16:15:54.492Z,2.80
2019-05-18T16:18:26.538Z,3.20
2019-05-18T16:20:58.575Z,3.65
2019-05-18T16:23:30.628Z,3.42
2019-05-18T16:26:02.685Z,3.42
2019-05-18T16:28:34.778Z,3.47
2019-05-18T16:31:06.827Z,2.90
2019-05-18T16:33:38.883Z,2.40
2019-05-18T16:36:10.958Z,3.17
2019-05-18T16:38:42.965Z,18.55
2019-05-18T16:41:14.973Z,16.48
2019-05-18T16:43:47.069Z,11.63
2019-05-18T16:46:19.194Z,16.60
2019-05-18T16:48:51.301Z,7.85
2019-05-18T16:51:23.329Z,4.47
2019-05-18T16:53:55.363Z,4.05
2019-05-18T16:56:34.823Z,3.70
2019-05-18T16:59:01.337Z,3.92
2019-05-18T17:01:33.386Z,3.35
2019-05-18T17:04:05.471Z,3.70
2019-05-18T17:06:37.485Z,4.08
2019-05-18T17:09:09.534Z,3.65
2019-05-18T17:11:41.528Z,3.80
2019-05-18T17:14:13.542Z,3.87
2019-05-18T17:16:45.630Z,4.22
2019-05-18T17:19:17.819Z,5.30
2019-05-18T17:21:49.809Z,4.90
2019-05-18T17:24:21.891Z,4.67
2019-05-18T17:26:53.883Z,4.65
2019-05-18T17:29:25.906Z,3.60
2019-05-18T17:31:57.996Z,4.30
2019-05-18T17:34:30.151Z,4.00
2019-05-18T17:37:02.136Z,3.40
2019-05-18T17:39:34.152Z,3.70
2019-05-18T17:42:06.168Z,4.40
2019-05-18T17:44:38.164Z,4.17
2019-05-18T17:47:10.137Z,4.20
2019-05-18T17:49:42.197Z,4.00
2019-05-18T17:52:14.180Z,4.10
2019-05-18T17:54:46.253Z,4.35
2019-05-18T17:57:18.235Z,4.92
2019-05-18T17:59:50.388Z,4.30
2019-05-18T18:02:22.396Z,4.33
2019-05-18T18:04:54.424Z,8.08
2019-05-18T18:07:26.500Z,6.20
2019-05-18T18:09:58.582Z,5.55
2019-05-18T18:12:30.626Z,5.40
2019-05-18T18:15:02.689Z,5.15
2019-05-18T18:17:34.740Z,3.90
2019-05-18T18:20:06.850Z,6.65
2019-05-18T18:22:38.897Z,6.47
2019-05-18T18:25:10.979Z,4.67
2019-05-18T18:27:43.023Z,4.55
2019-05-18T18:30:15.993Z,4.40
2019-05-18T18:32:48.016Z,4.75
2019-05-18T18:35:20.103Z,4.53
2019-05-18T18:37:52.096Z,4.28
2019-05-18T18:40:24.533Z,4.30
2019-05-18T18:42:56.581Z,4.50
2019-05-18T18:45:30.473Z,6.33
2019-05-18T18:48:02.603Z,8.15
2019-05-18T18:50:34.735Z,7.00
2019-05-18T18:53:06.766Z,4.80
2019-05-18T18:55:38.818Z,5.00
2019-05-18T18:58:10.866Z,5.00
2019-05-18T19:00:42.945Z,4.90
2019-05-18T19:03:14.955Z,4.53
2019-05-18T19:05:47.013Z,4.75
2019-05-18T19:08:19.032Z,4.40
2019-05-18T19:10:51.101Z,4.80
2019-05-18T19:13:23.222Z,4.97
2019-05-18T19:15:55.281Z,5.27
2019-05-18T19:18:27.321Z,5.80
2019-05-18T19:20:59.403Z,4.97
2019-05-18T19:23:31.457Z,5.65
2019-05-18T19:26:03.620Z,5.35
2019-05-18T19:28:35.723Z,5.20
2019-05-18T19:31:07.822Z,5.97
2019-05-18T19:33:39.905Z,6.23
2019-05-18T19:36:11.943Z,5.90
2019-05-18T19:38:43.929Z,6.45
2019-05-18T19:41:15.960Z,5.83
2019-05-18T19:43:47.993Z,6.28
2019-05-18T19:46:20.014Z,5.85
2019-05-18T19:48:52.076Z,5.90
2019-05-18T19:51:24.078Z,5.33
2019-05-18T19:53:56.206Z,5.72
2019-05-18T19:56:28.256Z,7.22
2019-05-18T19:59:00.328Z,6.53
2019-05-18T20:01:32.394Z,6.03
2019-05-18T20:04:04.532Z,5.92
2019-05-18T20:06:36.631Z,6.00
2019-05-18T20:09:08.785Z,6.67
2019-05-18T20:11:40.855Z,6.93
2019-05-18T20:14:12.920Z,6.33
2019-05-18T20:16:44.996Z,6.25
2019-05-18T20:19:16.976Z,6.87
2019-05-18T20:21:49.040Z,7.00
2019-05-18T20:24:21.199Z,6.60
2019-05-18T20:26:53.241Z,6.17
2019-05-18T20:29:25.279Z,7.00
2019-05-18T20:31:57.289Z,6.00
2019-05-18T20:34:29.400Z,5.83
2019-05-18T20:37:01.420Z,5.93
2019-05-18T20:39:33.453Z,7.50
2019-05-18T20:42:05.466Z,7.30
2019-05-18T20:44:37.485Z,7.63
2019-05-18T20:47:09.495Z,5.77
2019-05-18T20:49:41.507Z,6.63
2019-05-18T20:52:13.506Z,6.57
2019-05-18T20:54:45.569Z,6.70
2019-05-18T20:57:17.590Z,7.03
2019-05-18T20:59:49.650Z,7.13
2019-05-18T21:02:21.661Z,7.23
2019-05-18T21:04:53.642Z,7.33
2019-05-18T21:07:25.680Z,9.33
2019-05-18T21:09:57.706Z,10.00
2019-05-18T21:12:29.794Z,8.87
2019-05-18T21:15:01.860Z,8.17
2019-05-18T21:17:33.854Z,6.97
2019-05-18T21:20:06.030Z,7.93
2019-05-18T21:22:38.095Z,7.67
2019-05-18T21:25:10.289Z,8.50
2019-05-18T21:27:42.336Z,8.47
2019-05-18T21:30:14.373Z,7.40
2019-05-18T21:32:46.358Z,7.83
2019-05-18T21:35:18.405Z,7.07
2019-05-18T21:37:50.400Z,7.03
2019-05-18T21:40:22.429Z,9.80
2019-05-18T21:42:54.454Z,8.37
2019-05-18T21:45:26.472Z,7.10
2019-05-18T21:47:58.459Z,7.30
2019-05-18T21:50:30.464Z,6.63
2019-05-18T21:53:02.448Z,9.60
2019-05-18T21:55:34.760Z,8.47
2019-05-18T21:58:06.754Z,6.93
2019-05-18T22:00:38.843Z,7.67
2019-05-18T22:03:10.875Z,7.40
2019-05-18T22:05:42.869Z,7.57
2019-05-18T22:08:14.869Z,8.47
2019-05-18T22:10:46.887Z,7.20
2019-05-18T22:13:18.916Z,7.53
2019-05-18T22:15:50.885Z,7.60
2019-05-18T22:18:24.891Z,7.37
2019-05-18T22:20:56.781Z,7.20
2019-05-18T22:23:28.753Z,7.43
2019-05-18T22:26:00.725Z,7.07
2019-05-18T22:28:32.785Z,7.37
2019-05-18T22:31:04.855Z,7.30
2019-05-18T22:33:36.874Z,7.60
2019-05-18T22:36:08.815Z,7.37
2019-05-18T22:38:40.807Z,7.20
2019-05-18T22:41:12.845Z,7.53
2019-05-18T22:43:44.894Z,7.33
2019-05-18T22:46:16.880Z,7.73
2019-05-18T22:48:48.862Z,7.50
2019-05-18T22:51:20.825Z,7.07
2019-05-18T22:53:52.848Z,6.90
2019-05-18T22:56:24.818Z,6.73
2019-05-18T22:58:56.829Z,7.37
2019-05-18T23:01:28.830Z,6.93
2019-05-18T23:04:00.866Z,7.53
2019-05-18T23:06:32.902Z,7.10
2019-05-18T23:09:05.592Z,7.50
2019-05-18T23:11:37.597Z,7.23
2019-05-18T23:14:09.589Z,7.23
2019-05-18T23:16:41.594Z,7.07
2019-05-18T23:19:13.622Z,7.53
2019-05-18T23:21:45.573Z,6.50
2019-05-18T23:24:17.565Z,8.03
2019-05-18T23:26:49.542Z,7.30
2019-05-18T23:29:21.552Z,7.80
2019-05-18T23:31:53.543Z,8.00
2019-05-18T23:34:25.588Z,8.10
2019-05-18T23:36:57.553Z,8.10
2019-05-18T23:39:29.518Z,7.77
2019-05-18T23:42:01.493Z,7.87
2019-05-18T23:44:33.476Z,8.37
2019-05-18T23:47:05.451Z,8.23
2019-05-18T23:49:37.472Z,7.53
2019-05-18T23:52:09.455Z,6.90
2019-05-18T23:54:41.454Z,6.90
2019-05-18T23:57:13.418Z,7.83
2019-05-18T23:59:45.392Z,7.97
